Johnsons Corner, North Dakota
Current Conditions -  °F | °C
As of 1:35 PM on Thursday 27 Nov 2014 (Local Time) from KD60 Reporting Station
Light Snow Light Snow  
Wind Chill:   Ceiling: Unl
Heat Index: 16°   Visibility: 1mi
Dew Point: 16°   Wind: 16mph
Humidity: 100%   Direction: 110°ESE
Pressure: 29.97"   Gusts: NA
Location:  47.9596°N, 102.867°W
Report Text: KD60 271935Z AUTO 11014KT 1SM -SN CLR M09/M09 A2997 RMK AO2 P0003
Loading
Personal Weather Stations






























Interactive Weather Map New forecast layout! Learn more

10-Day Weather Forecast

Advertisements
Track Severe Weather on mobile